sensor_id;sensor_type;location;lat;lon;timestamp;P1;durP1;ratioP1;P2;durP2;ratioP2
3217;SDS011;1621;49.702;8.618;2022-12-07T00:00:12;13.73;;;8.23;;
3217;SDS011;1621;49.702;8.618;2022-12-07T00:02:39;13.93;;;9.13;;
3217;SDS011;1621;49.702;8.618;2022-12-07T00:05:05;11.27;;;8.63;;
3217;SDS011;1621;49.702;8.618;2022-12-07T00:07:31;12.90;;;9.20;;
3217;SDS011;1621;49.702;8.618;2022-12-07T00:09:59;14.30;;;10.30;;
3217;SDS011;1621;49.702;8.618;2022-12-07T00:12:25;15.13;;;10.80;;
3217;SDS011;1621;49.702;8.618;2022-12-07T00:14:52;12.37;;;8.50;;
3217;SDS011;1621;49.702;8.618;2022-12-07T00:17:18;15.20;;;9.83;;
3217;SDS011;1621;49.702;8.618;2022-12-07T00:19:44;13.17;;;9.10;;
3217;SDS011;1621;49.702;8.618;2022-12-07T00:22:10;16.93;;;11.20;;
3217;SDS011;1621;49.702;8.618;2022-12-07T00:24:37;13.57;;;9.93;;
3217;SDS011;1621;49.702;8.618;2022-12-07T00:27:04;12.83;;;9.60;;
3217;SDS011;1621;49.702;8.618;2022-12-07T00:29:31;11.23;;;8.23;;
3217;SDS011;1621;49.702;8.618;2022-12-07T00:31:57;13.23;;;9.50;;
3217;SDS011;1621;49.702;8.618;2022-12-07T00:34:23;11.60;;;8.50;;
3217;SDS011;1621;49.702;8.618;2022-12-07T00:36:49;16.07;;;10.50;;
3217;SDS011;1621;49.702;8.618;2022-12-07T00:39:16;13.17;;;9.17;;
3217;SDS011;1621;49.702;8.618;2022-12-07T00:41:43;13.10;;;9.10;;
3217;SDS011;1621;49.702;8.618;2022-12-07T00:44:10;15.70;;;9.03;;
3217;SDS011;1621;49.702;8.618;2022-12-07T00:46:37;16.37;;;11.13;;
3217;SDS011;1621;49.702;8.618;2022-12-07T00:49:03;17.67;;;11.70;;
3217;SDS011;1621;49.702;8.618;2022-12-07T00:51:29;12.57;;;9.43;;
3217;SDS011;1621;49.702;8.618;2022-12-07T00:53:55;11.67;;;8.30;;
3217;SDS011;1621;49.702;8.618;2022-12-07T00:56:22;11.03;;;8.53;;
3217;SDS011;1621;49.702;8.618;2022-12-07T00:58:49;12.90;;;8.60;;
3217;SDS011;1621;49.702;8.618;2022-12-07T01:01:17;13.40;;;9.50;;
3217;SDS011;1621;49.702;8.618;2022-12-07T01:03:43;12.43;;;9.20;;
3217;SDS011;1621;49.702;8.618;2022-12-07T01:06:10;13.20;;;9.20;;
3217;SDS011;1621;49.702;8.618;2022-12-07T01:08:39;13.70;;;9.13;;
3217;SDS011;1621;49.702;8.618;2022-12-07T01:11:06;13.93;;;8.50;;
3217;SDS011;1621;49.702;8.618;2022-12-07T01:13:33;11.77;;;8.70;;
3217;SDS011;1621;49.702;8.618;2022-12-07T01:16:01;11.73;;;8.00;;
3217;SDS011;1621;49.702;8.618;2022-12-07T01:18:30;11.37;;;8.40;;
3217;SDS011;1621;49.702;8.618;2022-12-07T01:20:58;8.73;;;7.47;;
3217;SDS011;1621;49.702;8.618;2022-12-07T01:23:24;12.27;;;8.20;;
3217;SDS011;1621;49.702;8.618;2022-12-07T01:25:53;9.53;;;7.43;;
3217;SDS011;1621;49.702;8.618;2022-12-07T01:28:19;10.83;;;7.93;;
3217;SDS011;1621;49.702;8.618;2022-12-07T01:30:54;11.73;;;8.23;;
3217;SDS011;1621;49.702;8.618;2022-12-07T01:33:20;10.73;;;7.50;;
3217;SDS011;1621;49.702;8.618;2022-12-07T01:35:47;10.90;;;8.00;;
3217;SDS011;1621;49.702;8.618;2022-12-07T01:38:14;11.50;;;8.47;;
3217;SDS011;1621;49.702;8.618;2022-12-07T01:40:40;10.00;;;7.70;;
3217;SDS011;1621;49.702;8.618;2022-12-07T01:43:08;12.03;;;8.47;;
3217;SDS011;1621;49.702;8.618;2022-12-07T01:45:38;12.10;;;8.70;;
3217;SDS011;1621;49.702;8.618;2022-12-07T01:48:05;12.30;;;8.30;;
3217;SDS011;1621;49.702;8.618;2022-12-07T01:50:32;10.63;;;7.87;;
3217;SDS011;1621;49.702;8.618;2022-12-07T01:53:01;13.47;;;8.40;;
3217;SDS011;1621;49.702;8.618;2022-12-07T01:55:28;12.83;;;8.70;;
3217;SDS011;1621;49.702;8.618;2022-12-07T01:57:55;11.93;;;7.90;;
3217;SDS011;1621;49.702;8.618;2022-12-07T02:00:21;10.07;;;7.80;;
3217;SDS011;1621;49.702;8.618;2022-12-07T02:02:48;10.17;;;8.37;;
3217;SDS011;1621;49.702;8.618;2022-12-07T02:05:16;11.20;;;7.90;;
3217;SDS011;1621;49.702;8.618;2022-12-07T02:07:42;11.40;;;8.30;;
3217;SDS011;1621;49.702;8.618;2022-12-07T02:10:14;12.90;;;8.20;;
3217;SDS011;1621;49.702;8.618;2022-12-07T02:12:41;12.03;;;8.30;;
3217;SDS011;1621;49.702;8.618;2022-12-07T02:15:08;9.97;;;7.30;;
3217;SDS011;1621;49.702;8.618;2022-12-07T02:17:36;13.60;;;8.97;;
3217;SDS011;1621;49.702;8.618;2022-12-07T02:22:52;13.63;;;8.60;;
3217;SDS011;1621;49.702;8.618;2022-12-07T02:25:27;11.00;;;8.60;;
3217;SDS011;1621;49.702;8.618;2022-12-07T02:27:57;11.20;;;8.40;;
3217;SDS011;1621;49.702;8.618;2022-12-07T02:30:27;10.63;;;9.07;;
3217;SDS011;1621;49.702;8.618;2022-12-07T02:32:55;10.43;;;7.17;;
3217;SDS011;1621;49.702;8.618;2022-12-07T02:35:24;11.90;;;8.67;;
3217;SDS011;1621;49.702;8.618;2022-12-07T02:37:53;12.20;;;7.83;;
3217;SDS011;1621;49.702;8.618;2022-12-07T02:40:25;10.53;;;7.73;;
3217;SDS011;1621;49.702;8.618;2022-12-07T02:42:54;11.10;;;8.13;;
3217;SDS011;1621;49.702;8.618;2022-12-07T02:45:22;10.50;;;8.17;;
3217;SDS011;1621;49.702;8.618;2022-12-07T02:47:51;11.63;;;8.93;;
3217;SDS011;1621;49.702;8.618;2022-12-07T02:50:18;10.90;;;8.77;;
3217;SDS011;1621;49.702;8.618;2022-12-07T02:52:45;11.17;;;7.80;;
3217;SDS011;1621;49.702;8.618;2022-12-07T02:55:11;12.00;;;8.43;;
3217;SDS011;1621;49.702;8.618;2022-12-07T02:57:42;14.50;;;8.80;;
3217;SDS011;1621;49.702;8.618;2022-12-07T03:00:13;11.90;;;8.80;;
3217;SDS011;1621;49.702;8.618;2022-12-07T03:02:43;12.27;;;8.57;;
3217;SDS011;1621;49.702;8.618;2022-12-07T03:05:17;14.93;;;9.40;;
3217;SDS011;1621;49.702;8.618;2022-12-07T03:07:48;10.97;;;7.97;;
3217;SDS011;1621;49.702;8.618;2022-12-07T03:10:17;13.27;;;8.70;;
3217;SDS011;1621;49.702;8.618;2022-12-07T03:12:53;11.40;;;8.33;;
3217;SDS011;1621;49.702;8.618;2022-12-07T03:15:22;11.50;;;9.13;;
3217;SDS011;1621;49.702;8.618;2022-12-07T03:17:51;12.03;;;9.30;;
3217;SDS011;1621;49.702;8.618;2022-12-07T03:20:19;13.03;;;8.80;;
3217;SDS011;1621;49.702;8.618;2022-12-07T03:22:46;10.50;;;8.30;;
3217;SDS011;1621;49.702;8.618;2022-12-07T03:25:13;12.87;;;8.90;;
3217;SDS011;1621;49.702;8.618;2022-12-07T03:27:43;11.97;;;8.23;;
3217;SDS011;1621;49.702;8.618;2022-12-07T03:30:12;10.87;;;8.10;;
3217;SDS011;1621;49.702;8.618;2022-12-07T03:32:39;11.83;;;8.00;;
3217;SDS011;1621;49.702;8.618;2022-12-07T03:35:09;12.97;;;9.20;;
3217;SDS011;1621;49.702;8.618;2022-12-07T03:37:39;13.30;;;9.63;;
3217;SDS011;1621;49.702;8.618;2022-12-07T03:40:10;12.00;;;8.50;;
3217;SDS011;1621;49.702;8.618;2022-12-07T03:42:38;13.17;;;9.23;;
3217;SDS011;1621;49.702;8.618;2022-12-07T03:45:04;12.93;;;9.30;;
3217;SDS011;1621;49.702;8.618;2022-12-07T03:47:33;12.93;;;9.03;;
3217;SDS011;1621;49.702;8.618;2022-12-07T03:50:02;12.37;;;9.40;;
3217;SDS011;1621;49.702;8.618;2022-12-07T03:52:31;13.87;;;9.53;;
3217;SDS011;1621;49.702;8.618;2022-12-07T03:55:02;12.50;;;9.20;;
3217;SDS011;1621;49.702;8.618;2022-12-07T03:57:30;12.47;;;9.57;;
3217;SDS011;1621;49.702;8.618;2022-12-07T03:59:57;11.20;;;8.60;;
3217;SDS011;1621;49.702;8.618;2022-12-07T04:02:25;13.60;;;8.67;;
3217;SDS011;1621;49.702;8.618;2022-12-07T04:04:53;16.50;;;10.03;;
3217;SDS011;1621;49.702;8.618;2022-12-07T04:07:19;12.27;;;9.43;;
3217;SDS011;1621;49.702;8.618;2022-12-07T04:09:45;11.40;;;9.33;;
3217;SDS011;1621;49.702;8.618;2022-12-07T04:12:13;14.43;;;9.30;;
3217;SDS011;1621;49.702;8.618;2022-12-07T04:14:39;11.33;;;8.70;;
3217;SDS011;1621;49.702;8.618;2022-12-07T04:17:05;12.90;;;9.77;;
3217;SDS011;1621;49.702;8.618;2022-12-07T04:19:32;12.73;;;9.73;;
3217;SDS011;1621;49.702;8.618;2022-12-07T04:21:59;11.87;;;9.00;;
3217;SDS011;1621;49.702;8.618;2022-12-07T04:24:26;16.63;;;9.80;;
3217;SDS011;1621;49.702;8.618;2022-12-07T04:26:52;15.40;;;10.13;;
3217;SDS011;1621;49.702;8.618;2022-12-07T04:29:20;11.63;;;9.40;;
3217;SDS011;1621;49.702;8.618;2022-12-07T04:31:46;14.47;;;10.13;;
3217;SDS011;1621;49.702;8.618;2022-12-07T04:34:13;16.30;;;9.47;;
3217;SDS011;1621;49.702;8.618;2022-12-07T04:36:40;13.97;;;9.60;;
3217;SDS011;1621;49.702;8.618;2022-12-07T04:39:07;14.30;;;9.27;;
3217;SDS011;1621;49.702;8.618;2022-12-07T04:41:33;15.80;;;9.97;;
3217;SDS011;1621;49.702;8.618;2022-12-07T04:44:00;13.47;;;9.37;;
3217;SDS011;1621;49.702;8.618;2022-12-07T04:46:29;12.60;;;9.73;;
3217;SDS011;1621;49.702;8.618;2022-12-07T04:48:56;11.03;;;8.70;;
3217;SDS011;1621;49.702;8.618;2022-12-07T04:51:24;12.70;;;9.50;;
3217;SDS011;1621;49.702;8.618;2022-12-07T04:53:50;13.80;;;9.80;;
3217;SDS011;1621;49.702;8.618;2022-12-07T04:56:17;13.60;;;9.10;;
3217;SDS011;1621;49.702;8.618;2022-12-07T04:58:44;11.73;;;8.40;;
3217;SDS011;1621;49.702;8.618;2022-12-07T05:01:11;13.23;;;8.10;;
3217;SDS011;1621;49.702;8.618;2022-12-07T05:03:39;11.33;;;8.87;;
3217;SDS011;1621;49.702;8.618;2022-12-07T05:06:05;12.67;;;9.70;;
3217;SDS011;1621;49.702;8.618;2022-12-07T05:08:32;12.20;;;8.57;;
3217;SDS011;1621;49.702;8.618;2022-12-07T05:10:58;11.83;;;9.67;;
3217;SDS011;1621;49.702;8.618;2022-12-07T05:13:25;12.63;;;8.50;;
3217;SDS011;1621;49.702;8.618;2022-12-07T05:15:51;12.90;;;8.13;;
3217;SDS011;1621;49.702;8.618;2022-12-07T05:18:17;12.10;;;8.13;;
3217;SDS011;1621;49.702;8.618;2022-12-07T05:20:45;11.37;;;8.63;;
3217;SDS011;1621;49.702;8.618;2022-12-07T05:23:12;12.03;;;7.93;;
3217;SDS011;1621;49.702;8.618;2022-12-07T05:25:38;12.50;;;9.07;;
3217;SDS011;1621;49.702;8.618;2022-12-07T05:28:05;9.90;;;7.87;;
3217;SDS011;1621;49.702;8.618;2022-12-07T05:30:31;10.93;;;8.60;;
3217;SDS011;1621;49.702;8.618;2022-12-07T05:32:58;13.63;;;9.60;;
3217;SDS011;1621;49.702;8.618;2022-12-07T05:35:24;13.07;;;8.77;;
3217;SDS011;1621;49.702;8.618;2022-12-07T05:37:52;12.73;;;8.93;;
3217;SDS011;1621;49.702;8.618;2022-12-07T05:40:18;12.43;;;8.53;;
3217;SDS011;1621;49.702;8.618;2022-12-07T05:42:45;11.60;;;8.93;;
3217;SDS011;1621;49.702;8.618;2022-12-07T05:45:10;10.93;;;8.27;;
3217;SDS011;1621;49.702;8.618;2022-12-07T05:47:37;10.33;;;7.10;;
3217;SDS011;1621;49.702;8.618;2022-12-07T05:50:04;10.13;;;8.30;;
3217;SDS011;1621;49.702;8.618;2022-12-07T05:52:30;11.23;;;7.80;;
3217;SDS011;1621;49.702;8.618;2022-12-07T05:54:58;11.97;;;8.43;;
3217;SDS011;1621;49.702;8.618;2022-12-07T05:57:24;12.07;;;8.83;;
3217;SDS011;1621;49.702;8.618;2022-12-07T05:59:50;10.83;;;8.17;;
3217;SDS011;1621;49.702;8.618;2022-12-07T06:02:16;11.33;;;8.00;;
3217;SDS011;1621;49.702;8.618;2022-12-07T06:04:43;14.00;;;8.93;;
3217;SDS011;1621;49.702;8.618;2022-12-07T06:07:11;11.60;;;8.83;;
3217;SDS011;1621;49.702;8.618;2022-12-07T06:09:37;11.60;;;8.20;;
3217;SDS011;1621;49.702;8.618;2022-12-07T06:12:06;11.03;;;8.10;;
3217;SDS011;1621;49.702;8.618;2022-12-07T06:14:50;11.20;;;7.77;;
3217;SDS011;1621;49.702;8.618;2022-12-07T06:17:17;12.50;;;9.10;;
3217;SDS011;1621;49.702;8.618;2022-12-07T06:19:43;10.37;;;8.00;;
3217;SDS011;1621;49.702;8.618;2022-12-07T06:22:10;11.90;;;8.33;;
3217;SDS011;1621;49.702;8.618;2022-12-07T06:24:36;10.93;;;7.67;;
3217;SDS011;1621;49.702;8.618;2022-12-07T06:27:03;11.50;;;8.60;;
3217;SDS011;1621;49.702;8.618;2022-12-07T06:29:30;12.03;;;8.70;;
3217;SDS011;1621;49.702;8.618;2022-12-07T06:31:57;12.47;;;9.03;;
3217;SDS011;1621;49.702;8.618;2022-12-07T06:34:23;12.03;;;8.47;;
3217;SDS011;1621;49.702;8.618;2022-12-07T06:36:50;12.70;;;8.90;;
3217;SDS011;1621;49.702;8.618;2022-12-07T06:39:18;11.93;;;8.40;;
3217;SDS011;1621;49.702;8.618;2022-12-07T06:41:45;12.00;;;9.00;;
3217;SDS011;1621;49.702;8.618;2022-12-07T06:44:11;11.73;;;8.50;;
3217;SDS011;1621;49.702;8.618;2022-12-07T06:46:39;12.93;;;8.63;;
3217;SDS011;1621;49.702;8.618;2022-12-07T06:49:05;10.40;;;7.97;;
3217;SDS011;1621;49.702;8.618;2022-12-07T06:51:32;12.97;;;8.80;;
3217;SDS011;1621;49.702;8.618;2022-12-07T06:54:00;13.60;;;8.60;;
3217;SDS011;1621;49.702;8.618;2022-12-07T06:56:26;12.40;;;9.00;;
3217;SDS011;1621;49.702;8.618;2022-12-07T06:58:53;12.40;;;8.70;;
3217;SDS011;1621;49.702;8.618;2022-12-07T07:01:20;15.30;;;8.97;;
3217;SDS011;1621;49.702;8.618;2022-12-07T07:03:47;12.83;;;9.00;;
3217;SDS011;1621;49.702;8.618;2022-12-07T07:06:14;11.80;;;8.33;;
3217;SDS011;1621;49.702;8.618;2022-12-07T07:08:40;11.23;;;8.90;;
3217;SDS011;1621;49.702;8.618;2022-12-07T07:11:07;11.77;;;9.10;;
3217;SDS011;1621;49.702;8.618;2022-12-07T07:13:34;9.80;;;8.10;;
3217;SDS011;1621;49.702;8.618;2022-12-07T07:16:00;11.23;;;9.00;;
3217;SDS011;1621;49.702;8.618;2022-12-07T07:18:27;14.97;;;9.20;;
3217;SDS011;1621;49.702;8.618;2022-12-07T07:20:54;12.73;;;9.23;;
3217;SDS011;1621;49.702;8.618;2022-12-07T07:23:21;12.10;;;7.90;;
3217;SDS011;1621;49.702;8.618;2022-12-07T07:25:47;10.63;;;8.10;;
3217;SDS011;1621;49.702;8.618;2022-12-07T07:28:14;12.10;;;8.13;;
3217;SDS011;1621;49.702;8.618;2022-12-07T07:30:41;11.80;;;8.37;;
3217;SDS011;1621;49.702;8.618;2022-12-07T07:33:07;13.87;;;9.10;;
3217;SDS011;1621;49.702;8.618;2022-12-07T07:35:34;12.10;;;8.57;;
3217;SDS011;1621;49.702;8.618;2022-12-07T07:38:01;13.23;;;9.10;;
3217;SDS011;1621;49.702;8.618;2022-12-07T07:40:28;11.73;;;8.37;;
3217;SDS011;1621;49.702;8.618;2022-12-07T07:42:55;10.90;;;8.90;;
3217;SDS011;1621;49.702;8.618;2022-12-07T07:45:22;12.77;;;8.80;;
3217;SDS011;1621;49.702;8.618;2022-12-07T07:47:48;11.97;;;8.43;;
3217;SDS011;1621;49.702;8.618;2022-12-07T07:50:15;11.80;;;8.70;;
3217;SDS011;1621;49.702;8.618;2022-12-07T07:52:42;11.57;;;8.33;;
3217;SDS011;1621;49.702;8.618;2022-12-07T07:55:09;12.03;;;9.03;;
3217;SDS011;1621;49.702;8.618;2022-12-07T07:57:36;11.17;;;8.30;;
3217;SDS011;1621;49.702;8.618;2022-12-07T08:00:02;10.90;;;8.40;;
3217;SDS011;1621;49.702;8.618;2022-12-07T08:02:29;12.17;;;8.67;;
3217;SDS011;1621;49.702;8.618;2022-12-07T08:04:55;11.90;;;8.43;;
3217;SDS011;1621;49.702;8.618;2022-12-07T08:07:21;12.43;;;9.10;;
3217;SDS011;1621;49.702;8.618;2022-12-07T08:09:48;12.77;;;9.57;;
3217;SDS011;1621;49.702;8.618;2022-12-07T08:12:15;11.90;;;8.90;;
3217;SDS011;1621;49.702;8.618;2022-12-07T08:14:42;10.73;;;8.03;;
3217;SDS011;1621;49.702;8.618;2022-12-07T08:17:08;12.97;;;9.37;;
3217;SDS011;1621;49.702;8.618;2022-12-07T08:19:34;12.53;;;9.13;;
3217;SDS011;1621;49.702;8.618;2022-12-07T08:22:00;11.57;;;8.57;;
3217;SDS011;1621;49.702;8.618;2022-12-07T08:24:27;14.67;;;9.40;;
3217;SDS011;1621;49.702;8.618;2022-12-07T08:26:53;11.60;;;8.87;;
3217;SDS011;1621;49.702;8.618;2022-12-07T08:29:21;11.63;;;8.90;;
3217;SDS011;1621;49.702;8.618;2022-12-07T08:31:47;11.63;;;8.90;;
3217;SDS011;1621;49.702;8.618;2022-12-07T08:34:14;14.00;;;9.70;;
3217;SDS011;1621;49.702;8.618;2022-12-07T08:36:40;13.87;;;10.23;;
3217;SDS011;1621;49.702;8.618;2022-12-07T08:39:06;14.63;;;10.23;;
3217;SDS011;1621;49.702;8.618;2022-12-07T08:41:33;12.93;;;9.43;;
3217;SDS011;1621;49.702;8.618;2022-12-07T08:43:59;12.77;;;9.60;;
3217;SDS011;1621;49.702;8.618;2022-12-07T08:46:28;14.90;;;10.13;;
3217;SDS011;1621;49.702;8.618;2022-12-07T08:48:58;12.73;;;9.20;;
3217;SDS011;1621;49.702;8.618;2022-12-07T08:51:28;14.60;;;9.50;;
3217;SDS011;1621;49.702;8.618;2022-12-07T08:53:54;13.60;;;10.13;;
3217;SDS011;1621;49.702;8.618;2022-12-07T08:56:21;18.00;;;9.93;;
3217;SDS011;1621;49.702;8.618;2022-12-07T08:58:47;12.07;;;10.10;;
3217;SDS011;1621;49.702;8.618;2022-12-07T09:01:14;12.17;;;9.47;;
3217;SDS011;1621;49.702;8.618;2022-12-07T09:03:41;15.63;;;9.57;;
3217;SDS011;1621;49.702;8.618;2022-12-07T09:06:08;12.90;;;9.20;;
3217;SDS011;1621;49.702;8.618;2022-12-07T09:08:34;14.60;;;10.90;;
3217;SDS011;1621;49.702;8.618;2022-12-07T09:11:02;13.73;;;10.03;;
3217;SDS011;1621;49.702;8.618;2022-12-07T09:13:28;14.53;;;10.33;;
3217;SDS011;1621;49.702;8.618;2022-12-07T09:15:54;15.50;;;10.50;;
3217;SDS011;1621;49.702;8.618;2022-12-07T09:18:21;17.33;;;11.67;;
3217;SDS011;1621;49.702;8.618;2022-12-07T09:20:48;16.10;;;10.83;;
3217;SDS011;1621;49.702;8.618;2022-12-07T09:23:15;15.37;;;10.77;;
3217;SDS011;1621;49.702;8.618;2022-12-07T09:25:41;18.83;;;11.40;;
3217;SDS011;1621;49.702;8.618;2022-12-07T09:28:07;14.83;;;11.00;;
3217;SDS011;1621;49.702;8.618;2022-12-07T09:30:34;16.60;;;11.07;;
3217;SDS011;1621;49.702;8.618;2022-12-07T09:33:00;13.60;;;10.00;;
3217;SDS011;1621;49.702;8.618;2022-12-07T09:35:26;14.20;;;11.33;;
3217;SDS011;1621;49.702;8.618;2022-12-07T09:37:54;16.67;;;11.10;;
3217;SDS011;1621;49.702;8.618;2022-12-07T09:40:21;15.70;;;11.10;;
3217;SDS011;1621;49.702;8.618;2022-12-07T09:42:49;17.97;;;10.50;;
3217;SDS011;1621;49.702;8.618;2022-12-07T09:45:16;14.80;;;10.90;;
3217;SDS011;1621;49.702;8.618;2022-12-07T09:47:43;18.87;;;12.27;;
3217;SDS011;1621;49.702;8.618;2022-12-07T09:50:12;15.93;;;10.57;;
3217;SDS011;1621;49.702;8.618;2022-12-07T09:52:39;16.17;;;12.03;;
3217;SDS011;1621;49.702;8.618;2022-12-07T09:55:10;15.47;;;11.63;;
3217;SDS011;1621;49.702;8.618;2022-12-07T09:57:37;16.80;;;11.67;;
3217;SDS011;1621;49.702;8.618;2022-12-07T10:00:05;18.80;;;11.73;;
3217;SDS011;1621;49.702;8.618;2022-12-07T10:02:36;16.67;;;12.03;;
3217;SDS011;1621;49.702;8.618;2022-12-07T10:05:04;13.33;;;10.70;;
3217;SDS011;1621;49.702;8.618;2022-12-07T10:07:30;16.20;;;11.00;;
3217;SDS011;1621;49.702;8.618;2022-12-07T10:09:56;14.17;;;11.33;;
3217;SDS011;1621;49.702;8.618;2022-12-07T10:12:24;16.73;;;11.40;;
3217;SDS011;1621;49.702;8.618;2022-12-07T10:14:54;17.00;;;12.27;;
3217;SDS011;1621;49.702;8.618;2022-12-07T10:17:29;19.00;;;11.80;;
3217;SDS011;1621;49.702;8.618;2022-12-07T10:20:05;14.70;;;11.77;;
3217;SDS011;1621;49.702;8.618;2022-12-07T10:22:34;17.70;;;12.00;;
3217;SDS011;1621;49.702;8.618;2022-12-07T10:25:07;15.97;;;11.40;;
3217;SDS011;1621;49.702;8.618;2022-12-07T10:27:35;15.50;;;11.93;;
3217;SDS011;1621;49.702;8.618;2022-12-07T10:30:01;14.23;;;10.40;;
3217;SDS011;1621;49.702;8.618;2022-12-07T10:32:35;16.20;;;12.20;;
3217;SDS011;1621;49.702;8.618;2022-12-07T10:35:18;16.80;;;11.93;;
3217;SDS011;1621;49.702;8.618;2022-12-07T10:37:44;16.13;;;11.87;;
3217;SDS011;1621;49.702;8.618;2022-12-07T10:40:23;18.03;;;11.97;;
3217;SDS011;1621;49.702;8.618;2022-12-07T10:43:01;17.77;;;12.70;;
3217;SDS011;1621;49.702;8.618;2022-12-07T10:45:27;14.70;;;10.97;;
3217;SDS011;1621;49.702;8.618;2022-12-07T10:47:55;14.27;;;10.70;;
3217;SDS011;1621;49.702;8.618;2022-12-07T10:50:31;13.97;;;11.13;;
3217;SDS011;1621;49.702;8.618;2022-12-07T10:53:07;15.23;;;11.23;;
3217;SDS011;1621;49.702;8.618;2022-12-07T10:55:40;14.17;;;11.43;;
3217;SDS011;1621;49.702;8.618;2022-12-07T10:58:21;15.47;;;11.10;;
3217;SDS011;1621;49.702;8.618;2022-12-07T11:00:51;15.30;;;11.97;;
3217;SDS011;1621;49.702;8.618;2022-12-07T11:06:05;18.07;;;11.60;;
3217;SDS011;1621;49.702;8.618;2022-12-07T11:08:44;17.17;;;11.90;;
3217;SDS011;1621;49.702;8.618;2022-12-07T11:11:12;16.40;;;11.33;;
3217;SDS011;1621;49.702;8.618;2022-12-07T11:13:43;17.00;;;12.30;;
3217;SDS011;1621;49.702;8.618;2022-12-07T11:16:19;17.63;;;11.80;;
3217;SDS011;1621;49.702;8.618;2022-12-07T11:18:50;16.30;;;11.60;;
3217;SDS011;1621;49.702;8.618;2022-12-07T11:21:20;16.67;;;11.87;;
3217;SDS011;1621;49.702;8.618;2022-12-07T11:23:52;17.57;;;13.10;;
3217;SDS011;1621;49.702;8.618;2022-12-07T11:26:25;15.27;;;12.07;;
3217;SDS011;1621;49.702;8.618;2022-12-07T11:29:03;15.50;;;11.97;;
3217;SDS011;1621;49.702;8.618;2022-12-07T11:31:34;17.07;;;12.13;;
3217;SDS011;1621;49.702;8.618;2022-12-07T11:34:03;13.50;;;10.90;;
3217;SDS011;1621;49.702;8.618;2022-12-07T11:36:35;21.40;;;11.70;;
3217;SDS011;1621;49.702;8.618;2022-12-07T11:39:03;15.10;;;11.60;;
3217;SDS011;1621;49.702;8.618;2022-12-07T11:41:31;16.67;;;12.30;;
3217;SDS011;1621;49.702;8.618;2022-12-07T11:43:59;15.40;;;12.47;;
3217;SDS011;1621;49.702;8.618;2022-12-07T11:46:33;16.10;;;11.53;;
3217;SDS011;1621;49.702;8.618;2022-12-07T11:49:02;20.20;;;11.77;;
3217;SDS011;1621;49.702;8.618;2022-12-07T11:51:29;16.87;;;11.73;;
3217;SDS011;1621;49.702;8.618;2022-12-07T11:53:58;14.20;;;10.57;;
3217;SDS011;1621;49.702;8.618;2022-12-07T11:56:26;15.20;;;11.93;;
3217;SDS011;1621;49.702;8.618;2022-12-07T11:58:54;15.00;;;11.20;;
3217;SDS011;1621;49.702;8.618;2022-12-07T12:01:25;20.33;;;12.07;;
3217;SDS011;1621;49.702;8.618;2022-12-07T12:03:55;15.93;;;12.00;;
3217;SDS011;1621;49.702;8.618;2022-12-07T12:06:23;15.30;;;11.50;;
3217;SDS011;1621;49.702;8.618;2022-12-07T12:08:50;17.57;;;13.10;;
3217;SDS011;1621;49.702;8.618;2022-12-07T12:11:21;14.97;;;12.20;;
3217;SDS011;1621;49.702;8.618;2022-12-07T12:14:06;17.97;;;13.27;;
3217;SDS011;1621;49.702;8.618;2022-12-07T12:16:48;15.17;;;12.10;;
3217;SDS011;1621;49.702;8.618;2022-12-07T12:19:29;15.67;;;12.30;;
3217;SDS011;1621;49.702;8.618;2022-12-07T12:22:00;17.07;;;13.07;;
3217;SDS011;1621;49.702;8.618;2022-12-07T12:24:28;15.87;;;11.73;;
3217;SDS011;1621;49.702;8.618;2022-12-07T12:27:01;15.10;;;10.83;;
3217;SDS011;1621;49.702;8.618;2022-12-07T12:29:31;19.23;;;12.50;;
3217;SDS011;1621;49.702;8.618;2022-12-07T12:32:10;16.87;;;12.53;;
3217;SDS011;1621;49.702;8.618;2022-12-07T12:34:40;18.13;;;13.00;;
3217;SDS011;1621;49.702;8.618;2022-12-07T12:42:43;18.43;;;13.97;;
3217;SDS011;1621;49.702;8.618;2022-12-07T12:45:18;14.43;;;11.37;;
3217;SDS011;1621;49.702;8.618;2022-12-07T12:47:52;18.30;;;12.00;;
3217;SDS011;1621;49.702;8.618;2022-12-07T12:50:20;15.37;;;11.37;;
3217;SDS011;1621;49.702;8.618;2022-12-07T12:52:49;10.47;;;6.03;;
3217;SDS011;1621;49.702;8.618;2022-12-07T12:55:22;7.83;;;5.43;;
3217;SDS011;1621;49.702;8.618;2022-12-07T13:00:34;7.50;;;3.83;;
3217;SDS011;1621;49.702;8.618;2022-12-07T13:03:01;7.80;;;4.40;;
3217;SDS011;1621;49.702;8.618;2022-12-07T13:05:29;5.63;;;3.93;;
3217;SDS011;1621;49.702;8.618;2022-12-07T13:07:57;5.80;;;3.90;;
3217;SDS011;1621;49.702;8.618;2022-12-07T13:10:31;7.67;;;3.93;;
3217;SDS011;1621;49.702;8.618;2022-12-07T13:12:59;6.50;;;4.10;;
3217;SDS011;1621;49.702;8.618;2022-12-07T13:15:33;6.37;;;3.43;;
3217;SDS011;1621;49.702;8.618;2022-12-07T13:18:01;9.30;;;3.67;;
3217;SDS011;1621;49.702;8.618;2022-12-07T13:20:44;8.20;;;4.43;;
3217;SDS011;1621;49.702;8.618;2022-12-07T13:23:11;4.70;;;3.57;;
3217;SDS011;1621;49.702;8.618;2022-12-07T13:25:41;6.57;;;3.83;;
3217;SDS011;1621;49.702;8.618;2022-12-07T13:28:14;11.77;;;4.80;;
3217;SDS011;1621;49.702;8.618;2022-12-07T13:30:43;7.57;;;5.03;;
3217;SDS011;1621;49.702;8.618;2022-12-07T13:33:11;7.43;;;3.90;;
3217;SDS011;1621;49.702;8.618;2022-12-07T13:35:38;8.13;;;4.37;;
3217;SDS011;1621;49.702;8.618;2022-12-07T13:38:22;8.90;;;4.10;;
3217;SDS011;1621;49.702;8.618;2022-12-07T13:43:46;6.40;;;4.50;;
3217;SDS011;1621;49.702;8.618;2022-12-07T13:46:13;6.50;;;3.50;;
3217;SDS011;1621;49.702;8.618;2022-12-07T13:48:43;5.77;;;3.50;;
3217;SDS011;1621;49.702;8.618;2022-12-07T13:51:16;6.27;;;4.60;;
3217;SDS011;1621;49.702;8.618;2022-12-07T13:53:47;7.67;;;3.30;;
3217;SDS011;1621;49.702;8.618;2022-12-07T13:56:13;6.30;;;4.13;;
3217;SDS011;1621;49.702;8.618;2022-12-07T13:58:40;6.57;;;4.13;;
3217;SDS011;1621;49.702;8.618;2022-12-07T14:01:06;6.43;;;4.57;;
3217;SDS011;1621;49.702;8.618;2022-12-07T14:03:33;4.80;;;3.40;;
3217;SDS011;1621;49.702;8.618;2022-12-07T14:06:11;6.37;;;4.20;;
3217;SDS011;1621;49.702;8.618;2022-12-07T14:08:39;5.50;;;3.97;;
3217;SDS011;1621;49.702;8.618;2022-12-07T14:11:07;7.33;;;3.80;;
3217;SDS011;1621;49.702;8.618;2022-12-07T14:13:35;6.73;;;4.03;;
3217;SDS011;1621;49.702;8.618;2022-12-07T14:16:05;9.43;;;4.30;;
3217;SDS011;1621;49.702;8.618;2022-12-07T14:18:43;6.90;;;4.63;;
3217;SDS011;1621;49.702;8.618;2022-12-07T14:21:14;6.07;;;4.10;;
3217;SDS011;1621;49.702;8.618;2022-12-07T14:23:40;7.37;;;5.00;;
3217;SDS011;1621;49.702;8.618;2022-12-07T14:26:10;8.53;;;5.10;;
3217;SDS011;1621;49.702;8.618;2022-12-07T14:28:38;13.33;;;4.67;;
3217;SDS011;1621;49.702;8.618;2022-12-07T14:31:07;7.47;;;4.90;;
3217;SDS011;1621;49.702;8.618;2022-12-07T14:33:34;6.90;;;4.47;;
3217;SDS011;1621;49.702;8.618;2022-12-07T14:36:00;7.73;;;4.70;;
3217;SDS011;1621;49.702;8.618;2022-12-07T14:38:27;10.97;;;6.10;;
3217;SDS011;1621;49.702;8.618;2022-12-07T14:40:53;10.13;;;5.67;;
3217;SDS011;1621;49.702;8.618;2022-12-07T14:43:42;7.67;;;4.40;;
3217;SDS011;1621;49.702;8.618;2022-12-07T14:46:08;8.63;;;4.70;;
3217;SDS011;1621;49.702;8.618;2022-12-07T14:48:35;8.17;;;5.20;;
3217;SDS011;1621;49.702;8.618;2022-12-07T14:51:01;6.57;;;4.60;;
3217;SDS011;1621;49.702;8.618;2022-12-07T14:53:29;9.57;;;5.57;;
3217;SDS011;1621;49.702;8.618;2022-12-07T14:55:55;8.03;;;5.03;;
3217;SDS011;1621;49.702;8.618;2022-12-07T14:58:22;7.57;;;5.30;;
3217;SDS011;1621;49.702;8.618;2022-12-07T15:00:49;7.43;;;5.47;;
3217;SDS011;1621;49.702;8.618;2022-12-07T15:03:16;10.10;;;5.37;;
3217;SDS011;1621;49.702;8.618;2022-12-07T15:05:42;10.17;;;5.10;;
3217;SDS011;1621;49.702;8.618;2022-12-07T15:08:08;7.37;;;5.30;;
3217;SDS011;1621;49.702;8.618;2022-12-07T15:10:35;10.20;;;5.40;;
3217;SDS011;1621;49.702;8.618;2022-12-07T15:13:03;6.53;;;5.10;;
3217;SDS011;1621;49.702;8.618;2022-12-07T15:15:44;7.23;;;5.67;;
3217;SDS011;1621;49.702;8.618;2022-12-07T15:18:11;6.73;;;5.33;;
3217;SDS011;1621;49.702;8.618;2022-12-07T15:20:37;8.10;;;5.00;;
3217;SDS011;1621;49.702;8.618;2022-12-07T15:23:04;10.20;;;5.70;;